sensor_id;sensor_type;location;lat;lon;timestamp;P1;P2;P0
44871;PMS7003;30602;51.060;17.226;2023-07-16T00:00:10;24;23;18
44871;PMS7003;30602;51.060;17.226;2023-07-16T00:04:08;27;24;18
44871;PMS7003;30602;51.060;17.226;2023-07-16T00:08:27;33;30;25
44871;PMS7003;30602;51.060;17.226;2023-07-16T00:16:18;29;26;21
44871;PMS7003;30602;51.060;17.226;2023-07-16T00:19:55;24;22;18
44871;PMS7003;30602;51.060;17.226;2023-07-16T00:23:39;30;27;22
44871;PMS7003;30602;51.060;17.226;2023-07-16T00:28:00;28;26;21
44871;PMS7003;30602;51.060;17.226;2023-07-16T00:31:28;30;29;22
44871;PMS7003;30602;51.060;17.226;2023-07-16T00:35:18;37;34;28
44871;PMS7003;30602;51.060;17.226;2023-07-16T00:39:32;32;30;24
44871;PMS7003;30602;51.060;17.226;2023-07-16T00:43:30;36;33;27
44871;PMS7003;30602;51.060;17.226;2023-07-16T00:46:53;24;22;17
44871;PMS7003;30602;51.060;17.226;2023-07-16T00:50:16;20;19;14
44871;PMS7003;30602;51.060;17.226;2023-07-16T00:54:05;50;42;35
44871;PMS7003;30602;51.060;17.226;2023-07-16T00:58:05;37;34;29
44871;PMS7003;30602;51.060;17.226;2023-07-16T01:01:55;26;24;19
44871;PMS7003;30602;51.060;17.226;2023-07-16T01:10:02;28;25;20
44871;PMS7003;30602;51.060;17.226;2023-07-16T01:13:43;33;30;25
44871;PMS7003;30602;51.060;17.226;2023-07-16T01:17:24;27;25;19
44871;PMS7003;30602;51.060;17.226;2023-07-16T01:21:16;28;26;22
44871;PMS7003;30602;51.060;17.226;2023-07-16T01:33:26;29;26;20
44871;PMS7003;30602;51.060;17.226;2023-07-16T01:37:04;23;21;17
44871;PMS7003;30602;51.060;17.226;2023-07-16T01:41:12;27;24;19
44871;PMS7003;30602;51.060;17.226;2023-07-16T01:44:40;26;24;18
44871;PMS7003;30602;51.060;17.226;2023-07-16T01:52:24;26;24;19
44871;PMS7003;30602;51.060;17.226;2023-07-16T01:56:19;27;24;19
44871;PMS7003;30602;51.060;17.226;2023-07-16T01:59:52;25;23;16
44871;PMS7003;30602;51.060;17.226;2023-07-16T02:08:02;24;21;17
44871;PMS7003;30602;51.060;17.226;2023-07-16T02:11:25;23;22;17
44871;PMS7003;30602;51.060;17.226;2023-07-16T02:15:07;24;21;16
44871;PMS7003;30602;51.060;17.226;2023-07-16T02:18:34;28;24;18
44871;PMS7003;30602;51.060;17.226;2023-07-16T02:22:02;27;24;18
44871;PMS7003;30602;51.060;17.226;2023-07-16T02:25:56;25;22;17
44871;PMS7003;30602;51.060;17.226;2023-07-16T02:29:49;25;22;17
44871;PMS7003;30602;51.060;17.226;2023-07-16T02:33:36;26;24;18
44871;PMS7003;30602;51.060;17.226;2023-07-16T02:37:18;25;23;18
44871;PMS7003;30602;51.060;17.226;2023-07-16T02:41:15;25;23;17
44871;PMS7003;30602;51.060;17.226;2023-07-16T02:44:38;25;22;18
44871;PMS7003;30602;51.060;17.226;2023-07-16T02:48:40;29;24;18
44871;PMS7003;30602;51.060;17.226;2023-07-16T02:52:35;23;20;16
44871;PMS7003;30602;51.060;17.226;2023-07-16T02:56:18;23;21;16
44871;PMS7003;30602;51.060;17.226;2023-07-16T03:00:03;27;23;19
44871;PMS7003;30602;51.060;17.226;2023-07-16T03:03:46;27;22;17
44871;PMS7003;30602;51.060;17.226;2023-07-16T03:08:18;29;28;21
44871;PMS7003;30602;51.060;17.226;2023-07-16T03:12:25;30;29;22
44871;PMS7003;30602;51.060;17.226;2023-07-16T03:16:09;32;30;23
44871;PMS7003;30602;51.060;17.226;2023-07-16T03:19:36;45;43;32
44871;PMS7003;30602;51.060;17.226;2023-07-16T03:23:09;38;38;31
44871;PMS7003;30602;51.060;17.226;2023-07-16T03:26:33;70;70;56
44871;PMS7003;30602;51.060;17.226;2023-07-16T03:29:57;39;38;35
44871;PMS7003;30602;51.060;17.226;2023-07-16T03:33:51;47;47;43
44871;PMS7003;30602;51.060;17.226;2023-07-16T03:37:10;52;52;42
44871;PMS7003;30602;51.060;17.226;2023-07-16T03:41:38;81;81;60
44871;PMS7003;30602;51.060;17.226;2023-07-16T03:45:00;43;39;34
44871;PMS7003;30602;51.060;17.226;2023-07-16T03:48:44;27;24;19
44871;PMS7003;30602;51.060;17.226;2023-07-16T03:52:16;37;37;20
44871;PMS7003;30602;51.060;17.226;2023-07-16T03:56:11;29;27;21
44871;PMS7003;30602;51.060;17.226;2023-07-16T03:59:35;27;24;18
44871;PMS7003;30602;51.060;17.226;2023-07-16T04:03:26;27;24;19
44871;PMS7003;30602;51.060;17.226;2023-07-16T04:07:54;27;23;17
44871;PMS7003;30602;51.060;17.226;2023-07-16T04:11:28;28;26;21
44871;PMS7003;30602;51.060;17.226;2023-07-16T04:14:55;28;24;20
44871;PMS7003;30602;51.060;17.226;2023-07-16T04:18:36;27;25;20
44871;PMS7003;30602;51.060;17.226;2023-07-16T04:22:42;28;25;20
44871;PMS7003;30602;51.060;17.226;2023-07-16T04:26:46;76;73;46
44871;PMS7003;30602;51.060;17.226;2023-07-16T04:30:40;50;48;39
44871;PMS7003;30602;51.060;17.226;2023-07-16T04:34:30;38;36;29
44871;PMS7003;30602;51.060;17.226;2023-07-16T04:37:56;27;25;21
44871;PMS7003;30602;51.060;17.226;2023-07-16T04:41:29;26;24;20
44871;PMS7003;30602;51.060;17.226;2023-07-16T04:45:04;27;25;21
44871;PMS7003;30602;51.060;17.226;2023-07-16T04:48:28;27;25;18
44871;PMS7003;30602;51.060;17.226;2023-07-16T04:51:52;26;23;19
44871;PMS7003;30602;51.060;17.226;2023-07-16T04:55:15;24;22;18
44871;PMS7003;30602;51.060;17.226;2023-07-16T04:58:38;24;22;18
44871;PMS7003;30602;51.060;17.226;2023-07-16T05:02:04;24;22;17
44871;PMS7003;30602;51.060;17.226;2023-07-16T05:06:31;24;21;17
44871;PMS7003;30602;51.060;17.226;2023-07-16T05:10:15;26;22;18
44871;PMS7003;30602;51.060;17.226;2023-07-16T05:14:02;28;24;21
44871;PMS7003;30602;51.060;17.226;2023-07-16T05:17:22;27;24;20
44871;PMS7003;30602;51.060;17.226;2023-07-16T05:21:03;26;24;21
44871;PMS7003;30602;51.060;17.226;2023-07-16T05:24:47;29;27;24
44871;PMS7003;30602;51.060;17.226;2023-07-16T05:29:03;28;26;22
44871;PMS7003;30602;51.060;17.226;2023-07-16T05:32:38;25;23;17
44871;PMS7003;30602;51.060;17.226;2023-07-16T05:36:22;38;38;21
44871;PMS7003;30602;51.060;17.226;2023-07-16T05:40:28;27;27;21
44871;PMS7003;30602;51.060;17.226;2023-07-16T05:43:48;22;21;17
44871;PMS7003;30602;51.060;17.226;2023-07-16T05:47:11;25;23;20
44871;PMS7003;30602;51.060;17.226;2023-07-16T05:50:37;29;25;22
44871;PMS7003;30602;51.060;17.226;2023-07-16T05:55:04;25;24;21
44871;PMS7003;30602;51.060;17.226;2023-07-16T05:58:48;36;33;28
44871;PMS7003;30602;51.060;17.226;2023-07-16T06:02:10;39;36;30
44871;PMS7003;30602;51.060;17.226;2023-07-16T06:05:54;25;23;21
44871;PMS7003;30602;51.060;17.226;2023-07-16T06:09:19;23;21;19
44871;PMS7003;30602;51.060;17.226;2023-07-16T06:13:25;40;40;32
44871;PMS7003;30602;51.060;17.226;2023-07-16T06:16:52;30;29;24
44871;PMS7003;30602;51.060;17.226;2023-07-16T06:20:13;27;23;20
44871;PMS7003;30602;51.060;17.226;2023-07-16T06:23:59;31;30;20
44871;PMS7003;30602;51.060;17.226;2023-07-16T06:27:21;39;38;25
44871;PMS7003;30602;51.060;17.226;2023-07-16T06:31:11;44;44;26
44871;PMS7003;30602;51.060;17.226;2023-07-16T06:34:56;45;44;28
44871;PMS7003;30602;51.060;17.226;2023-07-16T06:38:22;59;57;26
44871;PMS7003;30602;51.060;17.226;2023-07-16T06:41:47;50;50;29
44871;PMS7003;30602;51.060;17.226;2023-07-16T06:46:13;63;61;31
44871;PMS7003;30602;51.060;17.226;2023-07-16T06:49:41;28;27;25
44871;PMS7003;30602;51.060;17.226;2023-07-16T06:53:20;28;26;24
44871;PMS7003;30602;51.060;17.226;2023-07-16T06:57:07;20;19;16
44871;PMS7003;30602;51.060;17.226;2023-07-16T07:01:15;21;18;15
44871;PMS7003;30602;51.060;17.226;2023-07-16T07:04:39;21;17;14
44871;PMS7003;30602;51.060;17.226;2023-07-16T07:08:03;20;19;16
44871;PMS7003;30602;51.060;17.226;2023-07-16T07:12:02;18;16;13
44871;PMS7003;30602;51.060;17.226;2023-07-16T07:15:36;18;17;14
44871;PMS7003;30602;51.060;17.226;2023-07-16T07:19:22;26;23;20
44871;PMS7003;30602;51.060;17.226;2023-07-16T07:23:18;17;15;12
44871;PMS7003;30602;51.060;17.226;2023-07-16T07:27:17;20;18;16
44871;PMS7003;30602;51.060;17.226;2023-07-16T07:30:42;19;17;14
44871;PMS7003;30602;51.060;17.226;2023-07-16T07:34:32;23;22;20
44871;PMS7003;30602;51.060;17.226;2023-07-16T07:38:11;27;25;21
44871;PMS7003;30602;51.060;17.226;2023-07-16T07:41:55;26;25;19
44871;PMS7003;30602;51.060;17.226;2023-07-16T07:45:38;24;22;17
44871;PMS7003;30602;51.060;17.226;2023-07-16T07:49:36;22;20;16
44871;PMS7003;30602;51.060;17.226;2023-07-16T07:53:22;22;20;17
44871;PMS7003;30602;51.060;17.226;2023-07-16T07:57:40;23;22;19
44871;PMS7003;30602;51.060;17.226;2023-07-16T08:01:27;21;20;18
44871;PMS7003;30602;51.060;17.226;2023-07-16T08:05:24;19;16;12
44871;PMS7003;30602;51.060;17.226;2023-07-16T08:08:48;36;35;32
44871;PMS7003;30602;51.060;17.226;2023-07-16T08:12:24;24;24;22
44871;PMS7003;30602;51.060;17.226;2023-07-16T08:15:48;18;17;14
44871;PMS7003;30602;51.060;17.226;2023-07-16T08:19:09;17;15;13
44871;PMS7003;30602;51.060;17.226;2023-07-16T08:23:35;17;16;15
44871;PMS7003;30602;51.060;17.226;2023-07-16T08:27:10;18;16;13
44871;PMS7003;30602;51.060;17.226;2023-07-16T08:31:16;17;14;12
44871;PMS7003;30602;51.060;17.226;2023-07-16T08:34:52;15;14;11
44871;PMS7003;30602;51.060;17.226;2023-07-16T08:38:36;15;13;11
44871;PMS7003;30602;51.060;17.226;2023-07-16T08:42:44;19;18;15
44871;PMS7003;30602;51.060;17.226;2023-07-16T08:46:05;16;14;12
44871;PMS7003;30602;51.060;17.226;2023-07-16T08:49:54;16;14;12
44871;PMS7003;30602;51.060;17.226;2023-07-16T08:53:15;15;14;11
44871;PMS7003;30602;51.060;17.226;2023-07-16T08:56:39;15;13;11
44871;PMS7003;30602;51.060;17.226;2023-07-16T09:00:27;19;18;16
44871;PMS7003;30602;51.060;17.226;2023-07-16T09:04:15;18;16;14
44871;PMS7003;30602;51.060;17.226;2023-07-16T09:07:59;17;12;9
44871;PMS7003;30602;51.060;17.226;2023-07-16T09:11:24;15;13;10
44871;PMS7003;30602;51.060;17.226;2023-07-16T09:15:17;16;14;12
44871;PMS7003;30602;51.060;17.226;2023-07-16T09:18:51;17;15;12
44871;PMS7003;30602;51.060;17.226;2023-07-16T09:22:57;16;13;11
44871;PMS7003;30602;51.060;17.226;2023-07-16T09:26:19;16;15;13
44871;PMS7003;30602;51.060;17.226;2023-07-16T09:30:05;18;14;11
44871;PMS7003;30602;51.060;17.226;2023-07-16T09:33:36;19;17;14
44871;PMS7003;30602;51.060;17.226;2023-07-16T09:37:18;18;15;13
44871;PMS7003;30602;51.060;17.226;2023-07-16T09:41:32;19;17;15
44871;PMS7003;30602;51.060;17.226;2023-07-16T09:48:41;19;16;13
44871;PMS7003;30602;51.060;17.226;2023-07-16T09:52:24;27;27;18
44871;PMS7003;30602;51.060;17.226;2023-07-16T09:56:09;16;14;12
44871;PMS7003;30602;51.060;17.226;2023-07-16T10:00:10;17;15;13
44871;PMS7003;30602;51.060;17.226;2023-07-16T10:03:56;17;16;13
44871;PMS7003;30602;51.060;17.226;2023-07-16T10:07:43;18;14;12
44871;PMS7003;30602;51.060;17.226;2023-07-16T10:11:16;16;14;12
44871;PMS7003;30602;51.060;17.226;2023-07-16T10:14:47;16;14;13
44871;PMS7003;30602;51.060;17.226;2023-07-16T10:18:49;16;15;12
44871;PMS7003;30602;51.060;17.226;2023-07-16T10:22:38;18;15;12
44871;PMS7003;30602;51.060;17.226;2023-07-16T10:26:05;16;14;12
44871;PMS7003;30602;51.060;17.226;2023-07-16T10:29:31;17;15;13
44871;PMS7003;30602;51.060;17.226;2023-07-16T10:33:29;16;13;10
44871;PMS7003;30602;51.060;17.226;2023-07-16T10:36:52;16;15;12
44871;PMS7003;30602;51.060;17.226;2023-07-16T10:40:44;17;16;15
44871;PMS7003;30602;51.060;17.226;2023-07-16T10:48:26;16;15;13
44871;PMS7003;30602;51.060;17.226;2023-07-16T10:52:28;16;15;12
44871;PMS7003;30602;51.060;17.226;2023-07-16T10:56:06;17;16;14
44871;PMS7003;30602;51.060;17.226;2023-07-16T10:59:32;19;18;15
44871;PMS7003;30602;51.060;17.226;2023-07-16T11:02:57;18;17;15
44871;PMS7003;30602;51.060;17.226;2023-07-16T11:06:41;16;15;13
44871;PMS7003;30602;51.060;17.226;2023-07-16T11:10:21;18;16;14
44871;PMS7003;30602;51.060;17.226;2023-07-16T11:18:11;15;13;11
44871;PMS7003;30602;51.060;17.226;2023-07-16T11:22:09;17;13;12
44871;PMS7003;30602;51.060;17.226;2023-07-16T11:29:34;19;18;16
44871;PMS7003;30602;51.060;17.226;2023-07-16T11:33:02;41;39;38
44871;PMS7003;30602;51.060;17.226;2023-07-16T11:36:30;20;20;18
44871;PMS7003;30602;51.060;17.226;2023-07-16T11:40:17;19;17;15
44871;PMS7003;30602;51.060;17.226;2023-07-16T11:43:44;23;21;16
44871;PMS7003;30602;51.060;17.226;2023-07-16T11:47:21;22;21;16
44871;PMS7003;30602;51.060;17.226;2023-07-16T11:51:00;25;24;17
44871;PMS7003;30602;51.060;17.226;2023-07-16T11:54:28;21;20;16
44871;PMS7003;30602;51.060;17.226;2023-07-16T11:57:50;22;21;17
44871;PMS7003;30602;51.060;17.226;2023-07-16T12:01:30;25;25;18
44871;PMS7003;30602;51.060;17.226;2023-07-16T12:05:25;33;32;27
44871;PMS7003;30602;51.060;17.226;2023-07-16T12:08:49;30;29;26
44871;PMS7003;30602;51.060;17.226;2023-07-16T12:12:29;26;26;18
44871;PMS7003;30602;51.060;17.226;2023-07-16T12:15:54;26;23;17
44871;PMS7003;30602;51.060;17.226;2023-07-16T12:23:42;18;16;13
44871;PMS7003;30602;51.060;17.226;2023-07-16T12:27:20;21;20;18
44871;PMS7003;30602;51.060;17.226;2023-07-16T12:31:57;27;27;26
44871;PMS7003;30602;51.060;17.226;2023-07-16T12:35:58;17;16;14
44871;PMS7003;30602;51.060;17.226;2023-07-16T12:40:10;15;13;12
44871;PMS7003;30602;51.060;17.226;2023-07-16T12:44:36;19;18;17
44871;PMS7003;30602;51.060;17.226;2023-07-16T12:48:20;15;14;12
44871;PMS7003;30602;51.060;17.226;2023-07-16T12:52:13;29;27;23
44871;PMS7003;30602;51.060;17.226;2023-07-16T12:55:49;19;17;15
44871;PMS7003;30602;51.060;17.226;2023-07-16T12:59:11;29;29;26
44871;PMS7003;30602;51.060;17.226;2023-07-16T13:02:38;28;27;25
44871;PMS7003;30602;51.060;17.226;2023-07-16T13:06:12;33;33;32
44871;PMS7003;30602;51.060;17.226;2023-07-16T13:09:39;31;31;28
44871;PMS7003;30602;51.060;17.226;2023-07-16T13:13:27;15;13;11
44871;PMS7003;30602;51.060;17.226;2023-07-16T13:17:44;18;17;14
44871;PMS7003;30602;51.060;17.226;2023-07-16T13:21:42;16;14;12
44871;PMS7003;30602;51.060;17.226;2023-07-16T13:25:25;17;15;12
44871;PMS7003;30602;51.060;17.226;2023-07-16T13:29:42;17;15;12
44871;PMS7003;30602;51.060;17.226;2023-07-16T13:33:36;16;15;12
44871;PMS7003;30602;51.060;17.226;2023-07-16T13:37:22;15;13;11
44871;PMS7003;30602;51.060;17.226;2023-07-16T13:41:14;17;15;13
44871;PMS7003;30602;51.060;17.226;2023-07-16T13:44:56;15;13;10
44871;PMS7003;30602;51.060;17.226;2023-07-16T13:48:42;18;17;15
44871;PMS7003;30602;51.060;17.226;2023-07-16T13:52:28;17;15;12
44871;PMS7003;30602;51.060;17.226;2023-07-16T13:56:08;17;15;12
44871;PMS7003;30602;51.060;17.226;2023-07-16T14:00:16;16;15;12
44871;PMS7003;30602;51.060;17.226;2023-07-16T14:04:11;14;13;11
44871;PMS7003;30602;51.060;17.226;2023-07-16T14:07:32;17;16;13
44871;PMS7003;30602;51.060;17.226;2023-07-16T14:11:13;16;13;11
44871;PMS7003;30602;51.060;17.226;2023-07-16T14:15:45;14;13;10
44871;PMS7003;30602;51.060;17.226;2023-07-16T14:19:21;18;16;14
44871;PMS7003;30602;51.060;17.226;2023-07-16T14:23:06;17;16;14
44871;PMS7003;30602;51.060;17.226;2023-07-16T14:26:51;15;13;11
44871;PMS7003;30602;51.060;17.226;2023-07-16T14:30:34;16;15;12
44871;PMS7003;30602;51.060;17.226;2023-07-16T14:33:56;18;16;13
44871;PMS7003;30602;51.060;17.226;2023-07-16T14:38:04;16;14;12
44871;PMS7003;30602;51.060;17.226;2023-07-16T14:41:57;18;17;15
44871;PMS7003;30602;51.060;17.226;2023-07-16T14:45:58;17;16;13
44871;PMS7003;30602;51.060;17.226;2023-07-16T14:49:21;15;13;11
44871;PMS7003;30602;51.060;17.226;2023-07-16T14:53:06;18;17;13
44871;PMS7003;30602;51.060;17.226;2023-07-16T14:56:27;16;15;12
44871;PMS7003;30602;51.060;17.226;2023-07-16T14:59:49;15;14;12
44871;PMS7003;30602;51.060;17.226;2023-07-16T15:03:25;20;18;16
44871;PMS7003;30602;51.060;17.226;2023-07-16T15:06:44;23;22;20
44871;PMS7003;30602;51.060;17.226;2023-07-16T15:10:10;19;17;14
44871;PMS7003;30602;51.060;17.226;2023-07-16T15:13:34;17;16;13
44871;PMS7003;30602;51.060;17.226;2023-07-16T15:17:21;17;15;13
44871;PMS7003;30602;51.060;17.226;2023-07-16T15:20:44;36;34;32
44871;PMS7003;30602;51.060;17.226;2023-07-16T15:24:39;21;21;18
44871;PMS7003;30602;51.060;17.226;2023-07-16T15:28:35;23;21;17
44871;PMS7003;30602;51.060;17.226;2023-07-16T15:32:02;29;29;16
44871;PMS7003;30602;51.060;17.226;2023-07-16T15:35:22;27;27;15
44871;PMS7003;30602;51.060;17.226;2023-07-16T15:39:09;29;29;19
44871;PMS7003;30602;51.060;17.226;2023-07-16T15:43:12;23;21;12
44871;PMS7003;30602;51.060;17.226;2023-07-16T15:47:00;32;31;28
44871;PMS7003;30602;51.060;17.226;2023-07-16T15:54:39;19;17;15
44871;PMS7003;30602;51.060;17.226;2023-07-16T15:58:00;16;14;10
44871;PMS7003;30602;51.060;17.226;2023-07-16T16:01:25;17;14;11
44871;PMS7003;30602;51.060;17.226;2023-07-16T16:04:50;19;17;14
44871;PMS7003;30602;51.060;17.226;2023-07-16T16:08:14;20;18;13
44871;PMS7003;30602;51.060;17.226;2023-07-16T16:11:39;17;15;12
44871;PMS7003;30602;51.060;17.226;2023-07-16T16:15:17;23;21;18
44871;PMS7003;30602;51.060;17.226;2023-07-16T16:19:06;35;33;30
44871;PMS7003;30602;51.060;17.226;2023-07-16T16:22:32;30;29;27
44871;PMS7003;30602;51.060;17.226;2023-07-16T16:26:49;26;24;21
44871;PMS7003;30602;51.060;17.226;2023-07-16T16:30:13;26;25;17
44871;PMS7003;30602;51.060;17.226;2023-07-16T16:33:34;20;19;16
44871;PMS7003;30602;51.060;17.226;2023-07-16T16:37:17;20;19;16
44871;PMS7003;30602;51.060;17.226;2023-07-16T16:40:51;20;18;16
44871;PMS7003;30602;51.060;17.226;2023-07-16T16:44:14;20;18;16
44871;PMS7003;30602;51.060;17.226;2023-07-16T16:47:39;19;17;15
44871;PMS7003;30602;51.060;17.226;2023-07-16T16:51:00;19;16;13
44871;PMS7003;30602;51.060;17.226;2023-07-16T16:54:46;21;20;15
44871;PMS7003;30602;51.060;17.226;2023-07-16T16:58:42;23;22;20
44871;PMS7003;30602;51.060;17.226;2023-07-16T17:02:24;20;19;16
44871;PMS7003;30602;51.060;17.226;2023-07-16T17:05:49;19;18;15
44871;PMS7003;30602;51.060;17.226;2023-07-16T17:09:19;21;20;18
44871;PMS7003;30602;51.060;17.226;2023-07-16T17:12:49;35;32;29
44871;PMS7003;30602;51.060;17.226;2023-07-16T17:16:08;26;25;23
44871;PMS7003;30602;51.060;17.226;2023-07-16T17:19:33;22;21;19
44871;PMS7003;30602;51.060;17.226;2023-07-16T17:22:52;29;28;26
44871;PMS7003;30602;51.060;17.226;2023-07-16T17:26:18;28;27;25
44871;PMS7003;30602;51.060;17.226;2023-07-16T17:29:42;33;32;29
44871;PMS7003;30602;51.060;17.226;2023-07-16T17:33:29;31;31;29
44871;PMS7003;30602;51.060;17.226;2023-07-16T17:36:58;33;32;28
44871;PMS7003;30602;51.060;17.226;2023-07-16T17:40:22;34;31;27
44871;PMS7003;30602;51.060;17.226;2023-07-16T17:44:27;22;21;19
44871;PMS7003;30602;51.060;17.226;2023-07-16T17:47:55;17;15;13
44871;PMS7003;30602;51.060;17.226;2023-07-16T17:51:20;17;16;13
44871;PMS7003;30602;51.060;17.226;2023-07-16T17:54:54;19;17;14
44871;PMS7003;30602;51.060;17.226;2023-07-16T17:59:01;18;16;14
44871;PMS7003;30602;51.060;17.226;2023-07-16T18:02:44;18;16;13
44871;PMS7003;30602;51.060;17.226;2023-07-16T18:06:29;14;13;10
44871;PMS7003;30602;51.060;17.226;2023-07-16T18:10:12;15;12;10
44871;PMS7003;30602;51.060;17.226;2023-07-16T18:13:34;16;14;10
44871;PMS7003;30602;51.060;17.226;2023-07-16T18:17:16;25;24;18
44871;PMS7003;30602;51.060;17.226;2023-07-16T18:20:53;16;14;12
44871;PMS7003;30602;51.060;17.226;2023-07-16T18:24:16;20;18;16
44871;PMS7003;30602;51.060;17.226;2023-07-16T18:27:51;41;41;39
44871;PMS7003;30602;51.060;17.226;2023-07-16T18:31:40;19;17;13
44871;PMS7003;30602;51.060;17.226;2023-07-16T18:35:08;47;47;31
44871;PMS7003;30602;51.060;17.226;2023-07-16T18:38:51;19;17;14
44871;PMS7003;30602;51.060;17.226;2023-07-16T18:42:33;24;22;20
44871;PMS7003;30602;51.060;17.226;2023-07-16T18:46:49;15;14;10
44871;PMS7003;30602;51.060;17.226;2023-07-16T18:50:40;21;18;14
44871;PMS7003;30602;51.060;17.226;2023-07-16T18:54:25;20;19;15
44871;PMS7003;30602;51.060;17.226;2023-07-16T18:57:52;22;21;17
44871;PMS7003;30602;51.060;17.226;2023-07-16T19:01:42;26;23;20
44871;PMS7003;30602;51.060;17.226;2023-07-16T19:05:07;16;15;12
44871;PMS7003;30602;51.060;17.226;2023-07-16T19:09:09;18;16;13
44871;PMS7003;30602;51.060;17.226;2023-07-16T19:12:34;20;18;14
44871;PMS7003;30602;51.060;17.226;2023-07-16T19:15:59;23;20;15
44871;PMS7003;30602;51.060;17.226;2023-07-16T19:19:43;20;17;13
44871;PMS7003;30602;51.060;17.226;2023-07-16T19:24:00;20;18;14
44871;PMS7003;30602;51.060;17.226;2023-07-16T19:27:54;21;18;14
44871;PMS7003;30602;51.060;17.226;2023-07-16T19:31:31;19;16;12
44871;PMS7003;30602;51.060;17.226;2023-07-16T19:38:57;19;17;12
44871;PMS7003;30602;51.060;17.226;2023-07-16T19:43:12;18;17;12
44871;PMS7003;30602;51.060;17.226;2023-07-16T19:50:29;25;25;23
44871;PMS7003;30602;51.060;17.226;2023-07-16T19:54:21;15;14;11
44871;PMS7003;30602;51.060;17.226;2023-07-16T19:57:43;21;19;15
44871;PMS7003;30602;51.060;17.226;2023-07-16T20:01:15;20;18;14
44871;PMS7003;30602;51.060;17.226;2023-07-16T20:05:08;23;21;17
44871;PMS7003;30602;51.060;17.226;2023-07-16T20:08:33;20;18;14
44871;PMS7003;30602;51.060;17.226;2023-07-16T20:12:24;22;20;15
44871;PMS7003;30602;51.060;17.226;2023-07-16T20:15:47;15;13;11
44871;PMS7003;30602;51.060;17.226;2023-07-16T20:19:52;37;35;19
44871;PMS7003;30602;51.060;17.226;2023-07-16T20:23:12;72;70;38
44871;PMS7003;30602;51.060;17.226;2023-07-16T20:26:43;63;61;42
44871;PMS7003;30602;51.060;17.226;2023-07-16T20:30:15;31;30;20
44871;PMS7003;30602;51.060;17.226;2023-07-16T20:34:07;26;23;18
44871;PMS7003;30602;51.060;17.226;2023-07-16T20:37:31;31;30;21
44871;PMS7003;30602;51.060;17.226;2023-07-16T20:41:11;35;33;20
44871;PMS7003;30602;51.060;17.226;2023-07-16T20:45:38;36;35;24
44871;PMS7003;30602;51.060;17.226;2023-07-16T20:49:27;28;28;25
44871;PMS7003;30602;51.060;17.226;2023-07-16T20:53:12;20;18;14
44871;PMS7003;30602;51.060;17.226;2023-07-16T20:56:35;28;25;22
44871;PMS7003;30602;51.060;17.226;2023-07-16T21:00:02;29;27;23
44871;PMS7003;30602;51.060;17.226;2023-07-16T21:03:36;22;19;14
44871;PMS7003;30602;51.060;17.226;2023-07-16T21:07:22;29;27;21
44871;PMS7003;30602;51.060;17.226;2023-07-16T21:11:05;45;39;33
44871;PMS7003;30602;51.060;17.226;2023-07-16T21:14:32;33;30;25
44871;PMS7003;30602;51.060;17.226;2023-07-16T21:18:27;21;19;16
44871;PMS7003;30602;51.060;17.226;2023-07-16T21:21:51;23;22;17
44871;PMS7003;30602;51.060;17.226;2023-07-16T21:25:13;19;17;12
44871;PMS7003;30602;51.060;17.226;2023-07-16T21:28:34;22;20;16
44871;PMS7003;30602;51.060;17.226;2023-07-16T21:31:57;21;19;15
44871;PMS7003;30602;51.060;17.226;2023-07-16T21:35:39;20;18;16
44871;PMS7003;30602;51.060;17.226;2023-07-16T21:39:30;22;20;16
44871;PMS7003;30602;51.060;17.226;2023-07-16T21:43:03;24;23;17
44871;PMS7003;30602;51.060;17.226;2023-07-16T21:46:26;21;19;13
44871;PMS7003;30602;51.060;17.226;2023-07-16T21:49:51;21;20;15
44871;PMS7003;30602;51.060;17.226;2023-07-16T21:53:36;22;20;16
44871;PMS7003;30602;51.060;17.226;2023-07-16T21:57:11;22;20;15
44871;PMS7003;30602;51.060;17.226;2023-07-16T22:00:35;27;26;23
44871;PMS7003;30602;51.060;17.226;2023-07-16T22:04:14;31;30;26
44871;PMS7003;30602;51.060;17.226;2023-07-16T22:07:39;24;23;19
44871;PMS7003;30602;51.060;17.226;2023-07-16T22:11:42;21;18;15
44871;PMS7003;30602;51.060;17.226;2023-07-16T22:15:26;22;20;16
44871;PMS7003;30602;51.060;17.226;2023-07-16T22:19:11;25;22;17
44871;PMS7003;30602;51.060;17.226;2023-07-16T22:22:37;36;34;27
44871;PMS7003;30602;51.060;17.226;2023-07-16T22:26:21;40;35;28
44871;PMS7003;30602;51.060;17.226;2023-07-16T22:30:25;45;41;33
44871;PMS7003;30602;51.060;17.226;2023-07-16T22:34:11;33;30;25
44871;PMS7003;30602;51.060;17.226;2023-07-16T22:38:36;31;28;20
44871;PMS7003;30602;51.060;17.226;2023-07-16T22:42:18;34;31;26
44871;PMS7003;30602;51.060;17.226;2023-07-16T22:46:10;27;24;21
44871;PMS7003;30602;51.060;17.226;2023-07-16T22:49:30;29;26;22
44871;PMS7003;30602;51.060;17.226;2023-07-16T22:52:54;27;25;21
44871;PMS7003;30602;51.060;17.226;2023-07-16T22:56:43;23;21;18
44871;PMS7003;30602;51.060;17.226;2023-07-16T23:00:34;22;20;16
44871;PMS7003;30602;51.060;17.226;2023-07-16T23:04:29;20;19;14
44871;PMS7003;30602;51.060;17.226;2023-07-16T23:08:09;21;19;15
44871;PMS7003;30602;51.060;17.226;2023-07-16T23:12:05;24;23;19
44871;PMS7003;30602;51.060;17.226;2023-07-16T23:16:07;26;24;20
44871;PMS7003;30602;51.060;17.226;2023-07-16T23:19:30;34;30;21
44871;PMS7003;30602;51.060;17.226;2023-07-16T23:22:54;49;42;26
44871;PMS7003;30602;51.060;17.226;2023-07-16T23:27:10;57;48;28
44871;PMS7003;30602;51.060;17.226;2023-07-16T23:31:11;79;76;40
44871;PMS7003;30602;51.060;17.226;2023-07-16T23:34:34;51;45;38
44871;PMS7003;30602;51.060;17.226;2023-07-16T23:42:20;39;37;29
44871;PMS7003;30602;51.060;17.226;2023-07-16T23:46:15;36;33;28
44871;PMS7003;30602;51.060;17.226;2023-07-16T23:50:13;28;27;24
44871;PMS7003;30602;51.060;17.226;2023-07-16T23:54:23;34;31;27
44871;PMS7003;30602;51.060;17.226;2023-07-16T23:58:35;41;35;29
